Impacts TAF Board INFO
FOR SITUATIONAL AWARENESS. NOT TO BE USED FOR FLIGHT PLANNING PURPOSES.
IDs:

KMEM - Memphis Intl, TN, US

Issued at 0520 UTC 18 Nov 2017
Updated at 0823 UTC 18 Nov 2017
Potential Impact None Slight Moderate High
Time<<19/09Z 19/10Z 19/11Z 19/12Z 19/13Z 19/14Z 19/15Z 19/16Z 19/17Z 19/18Z 19/19Z 19/20Z 19/21Z
Type PRVL PRVL PRVL
VIS >6 >6 >6
CIG -- -- --
Cover SKC SKC SKC
FltCat VFR VFR VFR
WX -- -- --
WDir 330 330 330
WSpd 8 8 8
WGst -- -- --

Raw TAF
KMEM 180520Z 1806/1912 19018G26KT P6SM BKN045 BKN250 WS020/21050KT
  FM180800 19020G28KT P6SM VCSH BKN025 WS020/21050KT
  FM181800 21020G28KT P6SM VCSH BKN020 OVC035
  TEMPO 1819/1821 2SM +TSRA BR BKN009CB
  FM182100 29020G30KT P6SM VCSH BKN035
  FM190100 33015G25KT P6SM FEW040
  FM190400 33008KT P6SM SKC


METAR Board
Radar Display
Forecast Discussion

FOR SITUATIONAL AWARENESS. NOT TO BE USED FOR FLIGHT PLANNING PURPOSES.